Time;durP1;ratioP1;P1;durP2;ratioP2;P2;SDS_P1;SDS_P2;PMS_P1;PMS_P2;Temp;Humidity;BMP_temperature;BMP_pressure;BME280_temperature;BME280_humidity;BME280_pressure;Samples;Min_cycle;Max_cycle;Signal;HPM_P1;HPM_P2
2022/10/29 00:01:17;;;;;;;19.37;12.27;;;;;;;;;;4469385;32;20264;-87
2022/10/29 00:03:48;;;;;;;25.80;14.70;;;;;;;;;;4469525;32;20672;-87
2022/10/29 00:06:15;;;;;;;24.57;12.93;;;;;;;;;;4484608;32;20230;-88
2022/10/29 00:08:45;;;;;;;26.23;16.37;;;;;;;;;;4484940;32;20236;-87
2022/10/29 00:11:13;;;;;;;22.80;15.83;;;;;;;;;;4485209;32;20228;-87
2022/10/29 00:13:42;;;;;;;25.37;14.57;;;;;;;;;;4482683;32;20719;-87
2022/10/29 00:16:11;;;;;;;21.27;12.90;;;;;;;;;;4472293;32;20269;-87
2022/10/29 00:18:38;;;;;;;24.53;12.37;;;;;;;;;;4471990;32;20228;-87
2022/10/29 00:21:11;;;;;;;28.27;13.23;;;;;;;;;;4470774;32;20204;-87
2022/10/29 00:23:38;;;;;;;19.47;12.50;;;;;;;;;;4469032;32;20288;-86
2022/10/29 00:26:05;;;;;;;27.57;15.40;;;;;;;;;;4468937;32;20211;-86
2022/10/29 00:28:34;;;;;;;31.73;15.20;;;;;;;;;;4471801;32;20685;-86
2022/10/29 00:31:04;;;;;;;36.20;15.63;;;;;;;;;;4470094;32;20272;-86
2022/10/29 00:33:32;;;;;;;22.40;13.03;;;;;;;;;;4468688;32;20242;-86
2022/10/29 00:36:02;;;;;;;28.07;14.93;;;;;;;;;;4469180;32;20222;-84
2022/10/29 00:38:32;;;;;;;30.93;15.07;;;;;;;;;;4467548;32;20757;-86
2022/10/29 00:40:59;;;;;;;29.00;15.37;;;;;;;;;;4468841;32;20216;-86
2022/10/29 00:43:27;;;;;;;33.20;15.33;;;;;;;;;;4468197;32;20279;-87
2022/10/29 00:45:58;;;;;;;27.80;14.57;;;;;;;;;;4468545;32;20219;-87
2022/10/29 00:48:28;;;;;;;27.47;14.30;;;;;;;;;;4469660;32;20280;-87
2022/10/29 00:50:56;;;;;;;31.20;15.33;;;;;;;;;;4468206;32;20639;-85
2022/10/29 00:53:26;;;;;;;21.40;14.10;;;;;;;;;;4468032;32;20295;-87
2022/10/29 00:55:55;;;;;;;24.80;13.97;;;;;;;;;;4468691;32;20390;-87
2022/10/29 00:58:22;;;;;;;23.93;13.90;;;;;;;;;;4468396;32;20732;-85
2022/10/29 01:00:50;;;;;;;18.50;13.03;;;;;;;;;;4468238;32;20514;-86
2022/10/29 01:03:17;;;;;;;21.70;13.53;;;;;;;;;;4467221;32;20251;-86
2022/10/29 01:05:45;;;;;;;24.23;12.33;;;;;;;;;;4468598;32;20230;-86
2022/10/29 01:08:14;;;;;;;17.70;10.37;;;;;;;;;;4468366;32;20296;-86
2022/10/29 01:10:56;;;;;;;18.00;11.17;;;;;;;;;;4467988;32;20610;-86
2022/10/29 01:13:37;;;;;;;25.33;10.17;;;;;;;;;;4468331;32;20826;-86
2022/10/29 01:16:12;;;;;;;22.17;11.07;;;;;;;;;;4468778;32;20212;-86
2022/10/29 01:18:54;;;;;;;21.27;10.67;;;;;;;;;;4468176;32;20254;-86
2022/10/29 01:21:38;;;;;;;20.70;10.43;;;;;;;;;;4467786;32;20383;-86
2022/10/29 01:24:35;;;;;;;19.17;11.57;;;;;;;;;;4468261;32;20224;-86
2022/10/29 01:27:47;;;;;;;20.27;11.40;;;;;;;;;;4468452;32;20204;-86
2022/10/29 01:30:23;;;;;;;20.57;11.67;;;;;;;;;;4470379;32;20208;-86
2022/10/29 01:33:01;;;;;;;19.00;12.53;;;;;;;;;;4471184;32;20715;-87
2022/10/29 01:35:38;;;;;;;20.40;13.23;;;;;;;;;;4470294;32;20211;-87
2022/10/29 01:38:14;;;;;;;18.40;11.93;;;;;;;;;;4471180;32;20223;-86
2022/10/29 01:40:49;;;;;;;21.13;11.73;;;;;;;;;;4471303;32;20208;-87
2022/10/29 01:43:23;;;;;;;24.27;14.27;;;;;;;;;;4471098;32;20224;-86
2022/10/29 01:45:54;;;;;;;22.40;13.43;;;;;;;;;;4471232;32;20236;-87
2022/10/29 01:48:27;;;;;;;25.30;13.80;;;;;;;;;;4470912;32;20220;-84
2022/10/29 01:50:58;;;;;;;22.13;13.33;;;;;;;;;;4471128;32;20224;-87
2022/10/29 01:53:28;;;;;;;18.90;11.93;;;;;;;;;;4470994;32;20253;-85
2022/10/29 01:55:55;;;;;;;17.60;11.40;;;;;;;;;;4471058;32;20262;-87
2022/10/29 01:58:24;;;;;;;22.23;11.87;;;;;;;;;;4470486;32;20228;-84
2022/10/29 02:01:02;;;;;;;22.80;13.27;;;;;;;;;;4471231;32;20204;-85
2022/10/29 02:03:43;;;;;;;22.37;12.23;;;;;;;;;;4470419;32;20311;-86
2022/10/29 02:06:20;;;;;;;24.13;13.30;;;;;;;;;;4470948;32;20286;-87
2022/10/29 02:08:57;;;;;;;22.17;13.57;;;;;;;;;;4470409;32;20316;-87
2022/10/29 02:11:27;;;;;;;18.00;12.03;;;;;;;;;;4470741;32;20422;-85
2022/10/29 02:13:59;;;;;;;17.53;11.57;;;;;;;;;;4470384;32;20336;-85
2022/10/29 02:16:27;;;;;;;15.27;9.03;;;;;;;;;;4470817;32;20258;-87
2022/10/29 02:18:56;;;;;;;23.37;10.17;;;;;;;;;;4470740;32;20716;-87
2022/10/29 02:21:26;;;;;;;15.97;9.17;;;;;;;;;;4470215;32;20427;-85
2022/10/29 02:23:53;;;;;;;14.03;9.07;;;;;;;;;;4469271;32;20243;-87
2022/10/29 02:26:20;;;;;;;17.23;9.93;;;;;;;;;;4470177;32;20216;-85
2022/10/29 02:28:47;;;;;;;20.97;10.10;;;;;;;;;;4470224;32;20228;-84
2022/10/29 02:31:14;;;;;;;18.47;11.10;;;;;;;;;;4470516;32;20302;-85
2022/10/29 02:33:43;;;;;;;13.53;9.47;;;;;;;;;;4470005;32;20232;-85
2022/10/29 02:36:11;;;;;;;15.73;10.40;;;;;;;;;;4470019;32;20212;-87
2022/10/29 02:38:43;;;;;;;15.50;10.40;;;;;;;;;;4469956;32;20682;-85
2022/10/29 02:41:09;;;;;;;20.10;12.30;;;;;;;;;;4470196;32;20541;-84
2022/10/29 02:43:37;;;;;;;22.00;12.03;;;;;;;;;;4469874;32;20245;-86
2022/10/29 02:46:10;;;;;;;17.97;12.27;;;;;;;;;;4470019;32;20302;-85
2022/10/29 02:48:38;;;;;;;18.63;12.10;;;;;;;;;;4469796;32;20246;-86
2022/10/29 02:51:06;;;;;;;20.73;12.83;;;;;;;;;;4470194;32;20216;-85
2022/10/29 02:53:35;;;;;;;18.53;12.30;;;;;;;;;;4469985;32;20660;-86
2022/10/29 02:56:02;;;;;;;20.10;11.27;;;;;;;;;;4470210;32;20264;-87
2022/10/29 02:58:30;;;;;;;19.20;12.10;;;;;;;;;;4469720;32;20224;-87
2022/10/29 03:00:57;;;;;;;21.57;13.57;;;;;;;;;;4470199;32;20230;-85
2022/10/29 03:03:24;;;;;;;28.47;15.37;;;;;;;;;;4470201;32;20295;-86
2022/10/29 03:05:51;;;;;;;23.83;14.47;;;;;;;;;;4470316;32;20220;-86
2022/10/29 03:08:18;;;;;;;26.90;14.60;;;;;;;;;;4468754;32;20243;-86
2022/10/29 03:10:47;;;;;;;25.37;15.40;;;;;;;;;;4469953;32;20230;-85
2022/10/29 03:13:14;;;;;;;34.67;14.23;;;;;;;;;;4469762;32;20295;-85
2022/10/29 03:15:44;;;;;;;24.33;14.07;;;;;;;;;;4469512;32;20216;-85
2022/10/29 03:18:11;;;;;;;24.10;13.93;;;;;;;;;;4469386;32;20683;-85
2022/10/29 03:20:38;;;;;;;27.03;14.37;;;;;;;;;;4469131;32;20220;-85
2022/10/29 03:23:05;;;;;;;21.77;13.57;;;;;;;;;;4469326;32;20227;-85
2022/10/29 03:25:31;;;;;;;19.80;13.07;;;;;;;;;;4469953;32;20605;-85
2022/10/29 03:27:59;;;;;;;20.77;13.03;;;;;;;;;;4470104;32;20228;-86
2022/10/29 03:30:26;;;;;;;28.67;13.80;;;;;;;;;;4469953;32;20524;-86
2022/10/29 03:32:53;;;;;;;25.97;13.33;;;;;;;;;;4469048;32;20236;-86
2022/10/29 03:35:20;;;;;;;22.17;13.90;;;;;;;;;;4469542;32;20230;-86
2022/10/29 03:37:49;;;;;;;23.40;10.80;;;;;;;;;;4469426;32;20246;-86
2022/10/29 03:40:17;;;;;;;27.57;12.20;;;;;;;;;;4469395;32;20267;-86
2022/10/29 03:42:45;;;;;;;24.63;12.30;;;;;;;;;;4468392;32;20283;-86
2022/10/29 03:45:14;;;;;;;22.57;11.40;;;;;;;;;;4468862;32;20580;-85
2022/10/29 03:47:40;;;;;;;18.27;12.53;;;;;;;;;;4469144;32;20228;-85
2022/10/29 03:50:10;;;;;;;16.83;11.00;;;;;;;;;;4468725;32;20243;-86
2022/10/29 03:52:37;;;;;;;16.97;11.13;;;;;;;;;;4467543;32;20272;-86
2022/10/29 03:55:08;;;;;;;19.00;11.80;;;;;;;;;;4468868;32;20351;-86
2022/10/29 03:57:34;;;;;;;16.63;10.77;;;;;;;;;;4467754;32;20224;-86
2022/10/29 04:00:03;;;;;;;16.10;10.77;;;;;;;;;;4468705;32;20617;-86
2022/10/29 04:02:31;;;;;;;17.17;11.77;;;;;;;;;;4468738;32;20212;-86
2022/10/29 04:05:00;;;;;;;19.77;11.30;;;;;;;;;;4467659;32;20748;-86
2022/10/29 04:07:26;;;;;;;21.17;11.97;;;;;;;;;;4468333;32;20716;-86
2022/10/29 04:09:53;;;;;;;19.07;12.53;;;;;;;;;;4469063;32;20242;-86
2022/10/29 04:12:20;;;;;;;21.90;11.47;;;;;;;;;;4468677;32;20220;-86
2022/10/29 04:14:49;;;;;;;15.33;11.23;;;;;;;;;;4469127;32;20228;-86
2022/10/29 04:17:15;;;;;;;21.80;11.03;;;;;;;;;;4469243;32;20224;-86
2022/10/29 04:19:44;;;;;;;21.97;12.77;;;;;;;;;;4468455;32;20229;-86
2022/10/29 04:22:10;;;;;;;25.47;13.10;;;;;;;;;;4469021;32;20204;-86
2022/10/29 04:24:37;;;;;;;28.73;16.73;;;;;;;;;;4468335;32;20294;-85
2022/10/29 04:27:05;;;;;;;24.87;15.50;;;;;;;;;;4468317;32;20262;-86
2022/10/29 04:29:32;;;;;;;16.47;12.77;;;;;;;;;;4468636;32;20236;-86
2022/10/29 04:31:59;;;;;;;23.17;13.70;;;;;;;;;;4468830;32;20244;-86
2022/10/29 04:34:26;;;;;;;24.13;15.00;;;;;;;;;;4468460;32;20564;-86
2022/10/29 04:36:56;;;;;;;22.30;14.20;;;;;;;;;;4467778;32;20228;-86
2022/10/29 04:39:23;;;;;;;28.03;14.97;;;;;;;;;;4482294;32;20208;-85
2022/10/29 04:41:50;;;;;;;28.90;16.93;;;;;;;;;;4483548;32;20251;-85
2022/10/29 04:44:16;;;;;;;28.03;16.90;;;;;;;;;;4475942;32;20222;-86
2022/10/29 04:46:44;;;;;;;25.13;16.03;;;;;;;;;;4470750;32;20224;-86
2022/10/29 04:49:11;;;;;;;24.40;15.93;;;;;;;;;;4469793;32;20216;-86
2022/10/29 04:51:41;;;;;;;22.97;14.90;;;;;;;;;;4469635;32;20219;-86
2022/10/29 04:54:10;;;;;;;25.57;15.80;;;;;;;;;;4469012;32;20238;-86
2022/10/29 04:56:37;;;;;;;33.63;18.37;;;;;;;;;;4468184;32;20226;-86
2022/10/29 04:59:04;;;;;;;35.23;18.60;;;;;;;;;;4468682;32;20216;-86
2022/10/29 05:01:31;;;;;;;31.97;24.60;;;;;;;;;;4468159;32;20303;-86
2022/10/29 05:04:00;;;;;;;36.90;21.60;;;;;;;;;;4471050;32;20278;-86
2022/10/29 05:06:28;;;;;;;30.60;18.60;;;;;;;;;;4471348;32;20227;-86
2022/10/29 05:08:54;;;;;;;40.70;25.00;;;;;;;;;;4471317;32;20361;-86
2022/10/29 05:11:24;;;;;;;49.83;29.77;;;;;;;;;;4471235;32;20295;-86
2022/10/29 05:13:53;;;;;;;42.47;26.43;;;;;;;;;;4471735;32;20226;-86
2022/10/29 05:16:20;;;;;;;41.23;23.40;;;;;;;;;;4470134;32;20288;-86
2022/10/29 05:18:50;;;;;;;25.37;18.83;;;;;;;;;;4471307;32;20224;-86
2022/10/29 05:21:17;;;;;;;27.67;18.10;;;;;;;;;;4470018;32;20235;-86
2022/10/29 05:23:46;;;;;;;47.10;17.97;;;;;;;;;;4457746;32;20240;-87
2022/10/29 05:26:14;;;;;;;35.97;17.40;;;;;;;;;;4471025;32;20245;-86
2022/10/29 05:28:42;;;;;;;30.30;17.30;;;;;;;;;;4471018;32;20594;-86
2022/10/29 05:31:09;;;;;;;30.00;14.57;;;;;;;;;;4470920;32;20219;-86
2022/10/29 05:33:36;;;;;;;32.10;13.80;;;;;;;;;;4471472;32;20304;-86
2022/10/29 05:36:05;;;;;;;21.47;15.00;;;;;;;;;;4470824;32;20228;-86
2022/10/29 05:38:32;;;;;;;29.10;15.03;;;;;;;;;;4470946;32;20268;-86
2022/10/29 05:40:59;;;;;;;25.53;14.40;;;;;;;;;;4470904;32;20589;-88
2022/10/29 05:43:26;;;;;;;29.93;13.33;;;;;;;;;;4469952;32;20271;-86
2022/10/29 05:45:54;;;;;;;20.30;14.20;;;;;;;;;;4470547;32;20634;-86
2022/10/29 05:48:22;;;;;;;32.57;14.90;;;;;;;;;;4471046;32;20712;-87
2022/10/29 05:50:51;;;;;;;30.93;14.40;;;;;;;;;;4470844;32;20232;-89
2022/10/29 05:53:18;;;;;;;36.40;15.50;;;;;;;;;;4472011;32;20257;-87
2022/10/29 05:55:45;;;;;;;29.07;14.93;;;;;;;;;;4471133;32;20295;-86
2022/10/29 05:58:14;;;;;;;33.90;15.13;;;;;;;;;;4471526;32;20216;-87
2022/10/29 06:00:42;;;;;;;37.20;16.63;;;;;;;;;;4470835;32;20231;-86
2022/10/29 06:03:13;;;;;;;22.63;14.80;;;;;;;;;;4472133;32;20212;-86
2022/10/29 06:05:42;;;;;;;17.83;12.57;;;;;;;;;;4471708;32;20238;-86
2022/10/29 06:08:09;;;;;;;20.03;11.67;;;;;;;;;;4471467;32;20234;-86
2022/10/29 06:10:38;;;;;;;17.13;12.23;;;;;;;;;;4471536;32;20298;-86
2022/10/29 06:13:10;;;;;;;65.37;19.47;;;;;;;;;;4475708;32;20302;-86
2022/10/29 06:15:38;;;;;;;81.57;18.67;;;;;;;;;;4477689;32;20217;-85
2022/10/29 06:18:05;;;;;;;48.90;22.33;;;;;;;;;;4478602;32;20208;-86
2022/10/29 06:20:34;;;;;;;55.40;27.37;;;;;;;;;;4476680;32;20219;-85
2022/10/29 06:23:03;;;;;;;50.47;25.10;;;;;;;;;;4477054;32;20234;-84
2022/10/29 06:25:30;;;;;;;45.63;22.90;;;;;;;;;;4478869;32;20264;-86
2022/10/29 06:28:01;;;;;;;32.50;18.07;;;;;;;;;;4476663;32;20264;-87
2022/10/29 06:30:29;;;;;;;29.40;16.70;;;;;;;;;;4475256;32;20227;-87
2022/10/29 06:32:57;;;;;;;32.50;16.63;;;;;;;;;;4476537;32;20272;-87
2022/10/29 06:35:23;;;;;;;31.10;15.93;;;;;;;;;;4473679;32;20296;-86
2022/10/29 06:37:55;;;;;;;29.77;16.43;;;;;;;;;;4470456;32;20220;-85
2022/10/29 06:40:22;;;;;;;46.67;18.13;;;;;;;;;;4471899;32;20212;-86
2022/10/29 06:42:49;;;;;;;25.80;15.43;;;;;;;;;;4471209;32;20232;-86
2022/10/29 06:45:16;;;;;;;28.67;16.93;;;;;;;;;;4471530;32;20291;-86
2022/10/29 06:47:44;;;;;;;25.20;17.10;;;;;;;;;;4471121;32;20292;-86
2022/10/29 06:50:12;;;;;;;26.33;17.43;;;;;;;;;;4471558;32;20245;-87
2022/10/29 06:52:39;;;;;;;30.23;19.07;;;;;;;;;;4470364;32;20288;-87
2022/10/29 06:55:12;;;;;;;23.07;15.53;;;;;;;;;;4470694;32;20332;-86
2022/10/29 06:57:40;;;;;;;23.33;15.40;;;;;;;;;;4476036;32;20740;-85
2022/10/29 07:00:09;;;;;;;22.17;14.27;;;;;;;;;;4477746;32;20200;-85
2022/10/29 07:02:40;;;;;;;25.23;14.33;;;;;;;;;;4477469;32;20293;-86
2022/10/29 07:05:08;;;;;;;25.40;14.17;;;;;;;;;;4477138;32;20264;-87
2022/10/29 07:07:34;;;;;;;25.80;13.07;;;;;;;;;;4477298;32;20234;-85
2022/10/29 07:10:01;;;;;;;19.63;12.60;;;;;;;;;;4477126;32;20239;-86
2022/10/29 07:12:29;;;;;;;27.27;14.07;;;;;;;;;;4476684;32;20275;-86
2022/10/29 07:14:56;;;;;;;35.50;14.47;;;;;;;;;;4475525;32;20347;-86
2022/10/29 07:17:23;;;;;;;18.90;13.50;;;;;;;;;;4478799;32;20216;-86
2022/10/29 07:19:50;;;;;;;24.17;13.10;;;;;;;;;;4472661;32;20737;-87
2022/10/29 07:22:17;;;;;;;26.67;15.00;;;;;;;;;;4470223;32;20204;-86
2022/10/29 07:24:46;;;;;;;28.07;15.80;;;;;;;;;;4469771;32;20669;-86
2022/10/29 07:27:13;;;;;;;22.73;14.70;;;;;;;;;;4472678;32;20220;-86
2022/10/29 07:29:42;;;;;;;26.00;17.40;;;;;;;;;;4473878;32;20235;-86
2022/10/29 07:32:11;;;;;;;31.27;16.37;;;;;;;;;;4474299;32;20224;-86
2022/10/29 07:34:38;;;;;;;24.63;15.07;;;;;;;;;;4473816;32;20246;-86
2022/10/29 07:37:05;;;;;;;25.97;15.73;;;;;;;;;;4475019;32;20272;-85
2022/10/29 07:39:32;;;;;;;26.33;15.20;;;;;;;;;;4471058;32;20672;-86
2022/10/29 07:41:59;;;;;;;28.37;14.77;;;;;;;;;;4469418;32;20567;-85
2022/10/29 07:44:26;;;;;;;27.43;15.93;;;;;;;;;;4468114;32;20235;-85
2022/10/29 07:47:07;;;;;;;31.10;17.57;;;;;;;;;;4469289;32;20224;-85
2022/10/29 07:49:35;;;;;;;36.97;15.90;;;;;;;;;;4469477;32;20224;-85
2022/10/29 07:52:03;;;;;;;22.93;15.67;;;;;;;;;;4469579;32;20264;-85
2022/10/29 07:54:30;;;;;;;19.93;13.67;;;;;;;;;;4469364;32;20232;-85
2022/10/29 07:56:56;;;;;;;18.93;13.30;;;;;;;;;;4470121;32;20279;-86
2022/10/29 07:59:26;;;;;;;16.27;11.03;;;;;;;;;;4469484;32;20287;-85
2022/10/29 08:01:56;;;;;;;15.97;11.00;;;;;;;;;;4471383;32;20275;-85
2022/10/29 08:04:24;;;;;;;14.50;8.73;;;;;;;;;;4483716;32;20292;-86
2022/10/29 08:06:53;;;;;;;11.83;6.93;;;;;;;;;;4484375;32;20240;-84
2022/10/29 08:09:28;;;;;;;11.47;6.70;;;;;;;;;;4478355;32;20239;-84
2022/10/29 08:11:55;;;;;;;20.00;7.13;;;;;;;;;;4473688;32;20241;-85
2022/10/29 08:14:22;;;;;;;12.27;6.73;;;;;;;;;;4469285;32;20247;-87
2022/10/29 08:16:49;;;;;;;11.00;6.33;;;;;;;;;;4469784;32;20224;-85
2022/10/29 08:19:16;;;;;;;11.27;6.23;;;;;;;;;;4469911;32;20212;-87
2022/10/29 08:21:44;;;;;;;16.47;7.53;;;;;;;;;;4468814;32;20228;-87
2022/10/29 08:24:15;;;;;;;10.20;5.63;;;;;;;;;;4468678;32;20272;-85
2022/10/29 08:26:43;;;;;;;14.40;5.60;;;;;;;;;;4468772;32;20220;-85
2022/10/29 08:29:12;;;;;;;12.47;6.17;;;;;;;;;;4468680;32;20506;-85
2022/10/29 08:31:39;;;;;;;9.03;6.40;;;;;;;;;;4468534;32;20285;-86
2022/10/29 08:34:15;;;;;;;12.10;6.63;;;;;;;;;;4468530;32;20719;-85
2022/10/29 08:36:46;;;;;;;23.47;8.23;;;;;;;;;;4467587;32;20235;-85
2022/10/29 08:39:13;;;;;;;14.80;6.90;;;;;;;;;;4467106;32;20220;-85
2022/10/29 08:41:52;;;;;;;12.73;7.17;;;;;;;;;;4468371;32;20694;-85
2022/10/29 08:44:31;;;;;;;10.70;7.30;;;;;;;;;;4468784;32;20208;-85
2022/10/29 08:47:08;;;;;;;13.50;7.07;;;;;;;;;;4468267;32;20255;-85
2022/10/29 08:49:40;;;;;;;9.70;6.53;;;;;;;;;;4469014;32;20256;-85
2022/10/29 08:52:12;;;;;;;12.67;7.17;;;;;;;;;;4468776;32;20731;-85
2022/10/29 08:54:44;;;;;;;14.00;8.80;;;;;;;;;;4468663;32;20219;-85
2022/10/29 08:57:17;;;;;;;11.13;8.37;;;;;;;;;;4468195;32;20228;-85
2022/10/29 09:00:07;;;;;;;12.00;6.70;;;;;;;;;;4468672;32;20221;-85
2022/10/29 09:02:34;;;;;;;13.30;7.30;;;;;;;;;;4468055;32;20251;-85
2022/10/29 09:05:12;;;;;;;17.27;7.80;;;;;;;;;;4468630;32;20204;-85
2022/10/29 09:08:00;;;;;;;16.37;7.33;;;;;;;;;;4468495;32;20615;-85
2022/10/29 09:10:32;;;;;;;13.10;7.40;;;;;;;;;;4468585;32;20722;-85
2022/10/29 09:13:31;;;;;;;16.70;7.97;;;;;;;;;;4468592;32;20308;-85
2022/10/29 09:16:20;;;;;;;12.20;7.93;;;;;;;;;;4465566;32;20292;-85
2022/10/29 09:19:14;;;;;;;14.17;8.53;;;;;;;;;;4468533;32;20215;-85
2022/10/29 09:21:52;;;;;;;12.43;6.78;;;;;;;;;;4455107;32;20322;-88
2022/10/29 09:24:31;;;;;;;9.93;8.27;;;;;;;;;;4468554;32;20249;-85
2022/10/29 09:27:00;;;;;;;21.77;9.43;;;;;;;;;;4468146;32;20246;-85
2022/10/29 09:29:44;;;;;;;15.53;10.40;;;;;;;;;;4468458;32;20279;-85
2022/10/29 09:32:16;;;;;;;19.33;10.17;;;;;;;;;;4468035;32;20215;-87
2022/10/29 09:34:46;;;;;;;19.17;10.60;;;;;;;;;;4483998;32;20177;-85
2022/10/29 09:37:19;;;;;;;25.90;12.82;;;;;;;;;;4485693;32;20196;-84
2022/10/29 09:39:50;;;;;;;20.20;10.88;;;;;;;;;;4477334;32;20252;-86
2022/10/29 09:42:24;;;;;;;14.65;10.50;;;;;;;;;;4470775;32;20216;-86
2022/10/29 09:44:54;;;;;;;32.60;10.00;;;;;;;;;;4469591;32;20258;-86
2022/10/29 09:47:40;;;;;;;15.43;8.80;;;;;;;;;;4467720;32;20235;-86
2022/10/29 09:50:21;;;;;;;16.52;9.45;;;;;;;;;;4469357;32;20712;-85
2022/10/29 09:52:49;;;;;;;22.73;9.73;;;;;;;;;;4470627;32;20337;-85
2022/10/29 09:55:38;;;;;;;16.02;9.23;;;;;;;;;;4471121;32;20267;-86
2022/10/29 09:58:08;;;;;;;13.38;7.05;;;;;;;;;;4471153;32;20264;-86
2022/10/29 10:00:36;;;;;;;14.55;7.18;;;;;;;;;;4470925;32;20292;-87
2022/10/29 10:03:17;;;;;;;10.40;5.87;;;;;;;;;;4470460;32;20261;-86
2022/10/29 10:06:03;;;;;;;18.10;4.18;;;;;;;;;;4470815;32;20220;-86
2022/10/29 10:08:30;;;;;;;9.45;4.47;;;;;;;;;;4470961;32;20212;-85
2022/10/29 10:11:01;;;;;;;15.95;3.70;;;;;;;;;;4470445;32;20288;-85
2022/10/29 10:13:32;;;;;;;9.40;3.03;;;;;;;;;;4471030;32;20240;-85
2022/10/29 10:16:03;;;;;;;8.73;2.67;;;;;;;;;;4469651;32;20236;-86
2022/10/29 10:18:40;;;;;;;5.65;3.20;;;;;;;;;;4470952;32;20222;-86
2022/10/29 10:21:09;;;;;;;5.03;2.97;;;;;;;;;;4470484;32;20220;-85
2022/10/29 10:23:47;;;;;;;5.40;2.55;;;;;;;;;;4470326;32;20620;-88
2022/10/29 10:26:38;;;;;;;10.20;2.83;;;;;;;;;;4470483;32;20264;-85
2022/10/29 10:29:14;;;;;;;5.95;2.78;;;;;;;;;;4470787;32;20240;-85
2022/10/29 10:31:42;;;;;;;7.28;2.53;;;;;;;;;;4470385;32;20219;-85
2022/10/29 10:34:15;;;;;;;5.40;2.50;;;;;;;;;;4469671;32;20306;-85
2022/10/29 10:36:47;;;;;;;6.47;2.40;;;;;;;;;;4470268;32;20737;-88
2022/10/29 10:39:23;;;;;;;9.02;2.95;;;;;;;;;;4469677;32;20228;-87
2022/10/29 10:41:52;;;;;;;5.00;3.60;;;;;;;;;;4469163;32;20314;-88
2022/10/29 10:44:20;;;;;;;12.80;4.78;;;;;;;;;;4469473;32;20314;-88
2022/10/29 10:46:50;;;;;;;7.62;3.72;;;;;;;;;;4470033;32;20295;-88
2022/10/29 10:49:20;;;;;;;8.68;3.58;;;;;;;;;;4468827;32;20584;-88
2022/10/29 10:51:51;;;;;;;5.80;3.10;;;;;;;;;;4470072;32;20223;-88
2022/10/29 10:54:32;;;;;;;6.50;3.03;;;;;;;;;;4469792;32;20602;-89
2022/10/29 10:57:02;;;;;;;4.78;2.80;;;;;;;;;;4470424;32;20295;-88
2022/10/29 10:59:40;;;;;;;8.05;2.53;;;;;;;;;;4470586;32;20544;-88
2022/10/29 11:02:20;;;;;;;9.07;2.55;;;;;;;;;;4469103;32;20280;-87
2022/10/29 11:04:53;;;;;;;11.00;2.60;;;;;;;;;;4470111;32;20226;-88
2022/10/29 11:07:21;;;;;;;8.80;3.62;;;;;;;;;;4469483;32;20216;-88
2022/10/29 11:09:53;;;;;;;4.32;2.30;;;;;;;;;;4468555;32;20240;-88
2022/10/29 11:12:33;;;;;;;4.57;1.80;;;;;;;;;;4455650;32;20642;-88
2022/10/29 11:15:28;;;;;;;4.45;2.25;;;;;;;;;;4470046;32;20695;-88
2022/10/29 11:18:02;;;;;;;2.92;1.77;;;;;;;;;;4470022;32;20208;-87
2022/10/29 11:20:34;;;;;;;7.60;2.60;;;;;;;;;;4469826;32;20224;-88
2022/10/29 11:23:17;;;;;;;5.78;2.28;;;;;;;;;;4469703;32;20287;-88
2022/10/29 11:25:51;;;;;;;3.33;1.67;;;;;;;;;;4469942;32;20266;-87
2022/10/29 11:28:26;;;;;;;5.37;1.80;;;;;;;;;;4469501;32;20220;-87
2022/10/29 11:31:02;;;;;;;4.93;2.20;;;;;;;;;;4469770;32;20232;-87
2022/10/29 11:33:41;;;;;;;2.78;1.85;;;;;;;;;;4469773;32;20282;-87
2022/10/29 11:36:18;;;;;;;6.50;2.70;;;;;;;;;;4469770;32;20248;-88
2022/10/29 11:38:49;;;;;;;3.35;1.98;;;;;;;;;;4469309;32;20215;-88
2022/10/29 11:41:23;;;;;;;4.57;2.25;;;;;;;;;;4469901;32;20578;-87
2022/10/29 11:43:52;;;;;;;2.92;1.95;;;;;;;;;;4469126;32;20282;-88
2022/10/29 11:46:30;;;;;;;5.53;1.62;;;;;;;;;;4469036;32;20258;-88
2022/10/29 11:49:19;;;;;;;4.25;1.85;;;;;;;;;;4469182;32;20224;-88
2022/10/29 11:51:57;;;;;;;2.22;1.60;;;;;;;;;;4469470;32;20298;-87
2022/10/29 11:54:41;;;;;;;3.17;1.73;;;;;;;;;;4468939;32;20568;-87
2022/10/29 11:57:17;;;;;;;5.47;2.15;;;;;;;;;;4469455;32;20212;-88
2022/10/29 12:00:00;;;;;;;4.15;2.08;;;;;;;;;;4467803;32;20606;-85
2022/10/29 12:02:45;;;;;;;2.87;1.92;;;;;;;;;;4468070;32;20212;-87
2022/10/29 12:05:21;;;;;;;9.00;1.80;;;;;;;;;;4469339;32;20222;-87
2022/10/29 12:08:08;;;;;;;1.92;1.48;;;;;;;;;;4469087;32;20238;-87
2022/10/29 12:10:51;;;;;;;3.90;1.77;;;;;;;;;;4469482;32;20196;-87
2022/10/29 12:13:31;;;;;;;6.07;1.60;;;;;;;;;;4468566;32;20303;-87
2022/10/29 12:16:15;;;;;;;9.90;2.37;;;;;;;;;;4469093;32;20253;-88
2022/10/29 12:18:49;;;;;;;7.12;2.10;;;;;;;;;;4467738;32;20303;-87
2022/10/29 12:21:35;;;;;;;17.45;2.03;;;;;;;;;;4469160;32;20216;-87
2022/10/29 12:24:16;;;;;;;6.25;2.97;;;;;;;;;;4468619;32;20250;-87
2022/10/29 12:26:51;;;;;;;6.37;2.00;;;;;;;;;;4468976;32;20226;-88
2022/10/29 12:29:25;;;;;;;3.55;1.92;;;;;;;;;;4468532;32;20276;-87
2022/10/29 12:32:03;;;;;;;16.52;2.33;;;;;;;;;;4468917;32;20212;-87
2022/10/29 12:34:40;;;;;;;7.72;1.92;;;;;;;;;;4468263;32;20298;-87
2022/10/29 12:37:13;;;;;;;5.60;1.85;;;;;;;;;;4468879;32;20204;-87
2022/10/29 12:39:47;;;;;;;4.45;1.83;;;;;;;;;;4468975;32;20267;-88
2022/10/29 12:42:20;;;;;;;5.18;1.90;;;;;;;;;;4468827;32;20216;-87
2022/10/29 12:45:00;;;;;;;3.28;1.65;;;;;;;;;;4468953;32;20582;-87
2022/10/29 12:47:34;;;;;;;7.20;3.50;;;;;;;;;;4468260;32;20224;-87
2022/10/29 12:50:09;;;;;;;4.87;1.75;;;;;;;;;;4469015;32;20315;-86
2022/10/29 12:52:42;;;;;;;6.40;1.60;;;;;;;;;;4468762;32;20283;-88
2022/10/29 12:55:12;;;;;;;2.67;1.52;;;;;;;;;;4468776;32;20216;-88
2022/10/29 12:57:39;;;;;;;3.65;1.90;;;;;;;;;;4468157;32;20264;-87
2022/10/29 13:00:40;;;;;;;5.03;1.90;;;;;;;;;;4468703;32;20269;-87
2022/10/29 13:03:08;;;;;;;3.62;1.77;;;;;;;;;;4468498;32;20295;-86
2022/10/29 13:05:38;;;;;;;4.50;3.28;;;;;;;;;;4468803;32;20220;-87
2022/10/29 13:08:11;;;;;;;3.67;2.03;;;;;;;;;;4468019;32;20250;-87
2022/10/29 13:10:55;;;;;;;3.05;1.42;;;;;;;;;;4467622;32;20624;-87
2022/10/29 13:13:50;;;;;;;3.75;1.42;;;;;;;;;;4468185;32;20288;-87
2022/10/29 13:16:21;;;;;;;2.42;1.37;;;;;;;;;;4468028;32;20224;-86
2022/10/29 13:19:03;;;;;;;2.40;1.35;;;;;;;;;;4468109;32;20216;-87
2022/10/29 13:21:59;;;;;;;2.45;1.58;;;;;;;;;;4468068;32;20265;-87
2022/10/29 13:24:27;;;;;;;8.40;1.92;;;;;;;;;;4469588;32;20220;-86
2022/10/29 13:27:36;;;;;;;3.15;1.83;;;;;;;;;;4471112;32;20584;-87
2022/10/29 13:30:25;;;;;;;6.10;1.45;;;;;;;;;;4471122;32;20552;-85
2022/10/29 13:32:56;;;;;;;3.10;1.60;;;;;;;;;;4471500;32;20649;-87
2022/10/29 13:35:40;;;;;;;7.30;3.70;;;;;;;;;;4471379;32;20238;-86
2022/10/29 13:38:37;;;;;;;2.75;2.12;;;;;;;;;;4469650;32;20280;-86
2022/10/29 13:41:13;;;;;;;2.60;1.45;;;;;;;;;;4470716;32;20216;-87
2022/10/29 13:43:51;;;;;;;2.40;1.40;;;;;;;;;;4471020;32;20728;-87
2022/10/29 13:49:32;;;;;;;7.03;1.98;;;;;;;;;;4471013;32;20265;-87
2022/10/29 13:52:01;;;;;;;3.55;1.60;;;;;;;;;;4470632;32;20315;-86
2022/10/29 13:54:42;;;;;;;1.98;1.42;;;;;;;;;;4470626;32;20219;-87
2022/10/29 13:57:18;;;;;;;2.45;1.62;;;;;;;;;;4469472;32;20243;-86
2022/10/29 13:59:50;;;;;;;3.47;1.30;;;;;;;;;;4471152;32;20203;-87
2022/10/29 14:02:35;;;;;;;4.57;1.27;;;;;;;;;;4470491;32;20272;-86
2022/10/29 14:05:12;;;;;;;2.58;1.42;;;;;;;;;;4471039;32;20359;-87
2022/10/29 14:07:47;;;;;;;4.45;1.90;;;;;;;;;;4470915;32;20707;-86
2022/10/29 14:10:25;;;;;;;3.20;1.90;;;;;;;;;;4470864;32;20203;-87
2022/10/29 14:12:56;;;;;;;13.10;2.20;;;;;;;;;;4474878;32;20287;-86
2022/10/29 14:15:24;;;;;;;3.00;1.73;;;;;;;;;;4480347;32;20212;-86
2022/10/29 14:17:51;;;;;;;2.50;1.40;;;;;;;;;;4478729;32;20208;-86
2022/10/29 14:20:23;;;;;;;4.35;2.17;;;;;;;;;;4471625;32;20272;-87
2022/10/29 14:22:52;;;;;;;7.78;3.62;;;;;;;;;;4471234;32;20625;-86
2022/10/29 14:25:34;;;;;;;12.40;6.57;;;;;;;;;;4470128;32;20705;-86
2022/10/29 14:28:21;;;;;;;9.63;4.68;;;;;;;;;;4470656;32;20220;-86
2022/10/29 14:31:00;;;;;;;7.93;4.03;;;;;;;;;;4470491;32;20284;-86
2022/10/29 14:33:29;;;;;;;3.30;2.47;;;;;;;;;;4470302;32;20609;-86
2022/10/29 14:36:04;;;;;;;5.72;3.30;;;;;;;;;;4469445;32;20232;-86
2022/10/29 14:38:39;;;;;;;13.95;8.55;;;;;;;;;;4470669;32;20218;-86
2022/10/29 14:41:06;;;;;;;25.02;15.65;;;;;;;;;;4469380;32;20240;-87
2022/10/29 14:43:35;;;;;;;17.48;12.07;;;;;;;;;;4470489;32;20620;-87
2022/10/29 14:46:22;;;;;;;25.20;14.48;;;;;;;;;;4469519;32;20644;-86
2022/10/29 14:49:00;;;;;;;23.87;17.42;;;;;;;;;;4470409;32;20204;-87
2022/10/29 14:51:33;;;;;;;17.40;10.13;;;;;;;;;;4469998;32;20276;-87
2022/10/29 14:54:02;;;;;;;14.40;7.22;;;;;;;;;;4470278;32;20541;-86
2022/10/29 14:56:35;;;;;;;20.98;11.63;;;;;;;;;;4469880;32;20231;-87
2022/10/29 14:59:16;;;;;;;22.52;9.75;;;;;;;;;;4470413;32;20290;-86